createdAt,value
2019-06-09T00:02:37.838Z,17.95
2019-06-09T00:13:39.150Z,17.79
2019-06-09T00:24:39.670Z,17.43
2019-06-09T00:35:37.300Z,17.08
2019-06-09T00:46:28.573Z,17.11
2019-06-09T00:57:29.008Z,16.92
2019-06-09T01:08:27.491Z,16.62
2019-06-09T01:19:24.740Z,16.50
2019-06-09T01:30:24.704Z,16.23
2019-06-09T01:41:23.438Z,16.01
2019-06-09T01:52:14.500Z,15.97
2019-06-09T02:03:09.261Z,15.83
2019-06-09T02:14:01.500Z,15.81
2019-06-09T02:24:52.982Z,15.75
2019-06-09T02:36:04.264Z,15.64
2019-06-09T02:46:53.461Z,15.67
2019-06-09T02:57:56.067Z,15.57
2019-06-09T03:08:52.902Z,15.45
2019-06-09T03:19:52.257Z,15.45
2019-06-09T03:31:11.093Z,15.42
2019-06-09T03:41:39.198Z,15.48
2019-06-09T03:52:38.205Z,15.39
2019-06-09T04:03:42.937Z,15.49
2019-06-09T04:14:41.108Z,15.59
2019-06-09T04:25:42.658Z,15.76
2019-06-09T04:36:51.945Z,15.92
2019-06-09T04:47:45.080Z,16.15
2019-06-09T04:58:54.838Z,16.50
2019-06-09T05:09:55.695Z,16.78
2019-06-09T05:20:53.097Z,17.28
2019-06-09T05:31:52.054Z,17.66
2019-06-09T05:42:46.462Z,18.28
2019-06-09T05:53:43.603Z,18.59
2019-06-09T06:04:43.835Z,19.54
2019-06-09T06:15:44.200Z,19.95
2019-06-09T06:26:45.250Z,20.12
2019-06-09T06:37:52.835Z,20.56
2019-06-09T06:48:55.935Z,21.08
2019-06-09T07:00:01.752Z,21.57
2019-06-09T07:11:05.410Z,21.69
2019-06-09T07:22:03.618Z,22.32
2019-06-09T07:33:03.758Z,22.59
2019-06-09T07:43:57.956Z,23.09
2019-06-09T07:54:58.186Z,23.43
2019-06-09T08:06:01.072Z,23.17
2019-06-09T08:17:03.497Z,23.68
2019-06-09T08:28:07.401Z,24.17
2019-06-09T08:39:14.572Z,24.10
2019-06-09T08:50:15.130Z,24.32
2019-06-09T09:01:21.684Z,24.56
2019-06-09T09:12:23.431Z,24.40
2019-06-09T09:23:24.582Z,24.94
2019-06-09T09:34:25.427Z,25.12
2019-06-09T09:45:30.736Z,25.12
2019-06-09T09:56:31.466Z,25.60
2019-06-09T10:07:34.982Z,25.99
2019-06-09T10:18:36.489Z,26.11
2019-06-09T10:29:40.685Z,26.52
2019-06-09T10:40:43.104Z,26.69
2019-06-09T10:51:41.777Z,27.13
2019-06-09T11:02:45.284Z,27.45
2019-06-09T11:13:42.891Z,28.28
2019-06-09T11:24:44.848Z,28.28
2019-06-09T11:35:52.228Z,29.65
2019-06-09T11:46:54.800Z,31.79
2019-06-09T11:57:57.903Z,31.79
2019-06-09T12:09:04.611Z,30.15
2019-06-09T12:20:07.515Z,33.21
2019-06-09T12:31:11.063Z,31.95
2019-06-09T12:42:07.672Z,32.92
2019-06-09T12:53:09.502Z,31.99
2019-06-09T13:04:16.092Z,31.89
2019-06-09T13:15:14.007Z,32.82
2019-06-09T13:26:13.971Z,31.42
2019-06-09T13:37:18.298Z,31.91
2019-06-09T13:48:17.302Z,31.66
2019-06-09T13:59:24.113Z,32.83
2019-06-09T14:10:26.515Z,32.79
2019-06-09T14:21:26.145Z,33.26
2019-06-09T14:32:33.748Z,32.95
2019-06-09T14:43:34.547Z,31.99
2019-06-09T14:54:33.706Z,33.02
2019-06-09T15:05:30.605Z,31.20
2019-06-09T15:16:27.071Z,31.21
2019-06-09T15:27:24.255Z,30.26
2019-06-09T15:38:28.566Z,28.87
2019-06-09T15:49:24.826Z,28.43
2019-06-09T16:00:27.387Z,28.54
2019-06-09T16:11:31.304Z,27.94
2019-06-09T16:22:32.382Z,27.46
2019-06-09T16:33:35.471Z,27.21
2019-06-09T16:44:35.937Z,27.16
2019-06-09T16:55:34.552Z,26.82
2019-06-09T17:06:33.519Z,26.57
2019-06-09T17:17:35.214Z,26.04
2019-06-09T17:28:33.774Z,26.40
2019-06-09T17:39:37.299Z,25.97
2019-06-09T17:50:33.791Z,25.60
2019-06-09T18:01:37.839Z,25.22
2019-06-09T18:12:42.028Z,24.91
2019-06-09T18:23:42.611Z,24.67
2019-06-09T18:34:41.831Z,24.32
2019-06-09T18:45:43.010Z,23.65
2019-06-09T18:56:41.363Z,23.08
2019-06-09T19:07:44.182Z,22.52
2019-06-09T19:18:48.093Z,22.07
2019-06-09T19:29:45.240Z,21.85
2019-06-09T19:40:46.063Z,21.63
2019-06-09T19:51:46.254Z,21.21
2019-06-09T20:02:50.289Z,20.99
2019-06-09T20:13:51.361Z,20.47
2019-06-09T20:24:49.865Z,20.38
2019-06-09T20:35:53.067Z,20.05
2019-06-09T20:46:55.711Z,19.83
2019-06-09T20:57:57.513Z,19.64
2019-06-09T21:08:56.325Z,19.38
2019-06-09T21:19:57.010Z,19.17
2019-06-09T21:31:01.829Z,19.18
2019-06-09T21:41:58.892Z,18.98
2019-06-09T21:52:57.727Z,18.82
2019-06-09T22:03:58.358Z,18.73
2019-06-09T22:14:57.648Z,18.59
2019-06-09T22:25:56.924Z,18.58
2019-06-09T22:36:57.809Z,18.37
2019-06-09T22:48:00.376Z,18.24
2019-06-09T22:59:03.634Z,18.28
2019-06-09T23:10:06.003Z,18.09
2019-06-09T23:21:07.524Z,17.77
2019-06-09T23:32:07.451Z,17.76
2019-06-09T23:43:06.030Z,17.79
2019-06-09T23:54:06.802Z,17.63
